Time;durP1;ratioP1;P1;durP2;ratioP2;P2;SDS_P1;SDS_P2;PMS_P1;PMS_P2;Temp;Humidity;BMP_temperature;BMP_pressure;BME280_temperature;BME280_humidity;BME280_pressure;Samples;Min_cycle;Max_cycle;Signal;HPM_P1;HPM_P2
2023/05/11 00:01:24;;;;;;;0.95;0.80;;;20.30;55.80;;;;;;5032317;28;20570;-76
2023/05/11 00:03:51;;;;;;;1.17;0.60;;;20.20;55.80;;;;;;5032373;28;20196;-76
2023/05/11 00:06:18;;;;;;;1.25;0.90;;;20.30;55.90;;;;;;5032963;28;20242;-76
2023/05/11 00:08:45;;;;;;;0.45;0.45;;;20.30;55.80;;;;;;5033512;28;20212;-76
2023/05/11 00:11:12;;;;;;;1.27;0.82;;;20.20;55.80;;;;;;5031965;28;20220;-76
2023/05/11 00:13:39;;;;;;;0.70;0.68;;;20.30;55.90;;;;;;5032082;28;20673;-76
2023/05/11 00:16:06;;;;;;;0.50;0.50;;;20.30;55.80;;;;;;5032657;28;20263;-76
2023/05/11 00:18:34;;;;;;;0.70;0.70;;;20.30;55.90;;;;;;5032006;28;20204;-76
2023/05/11 00:21:01;;;;;;;1.02;0.73;;;20.20;55.70;;;;;;5031910;28;20192;-76
2023/05/11 00:23:28;;;;;;;1.30;0.55;;;20.20;55.70;;;;;;5032361;28;20185;-76
2023/05/11 00:25:55;;;;;;;0.60;0.60;;;20.20;55.70;;;;;;5031802;28;20201;-76
2023/05/11 00:28:22;;;;;;;0.80;0.80;;;20.20;56.30;;;;;;5032247;28;20224;-76
2023/05/11 00:30:49;;;;;;;1.10;0.63;;;20.20;55.80;;;;;;5031989;28;20200;-76
2023/05/11 00:33:16;;;;;;;1.30;0.80;;;20.20;55.80;;;;;;5035276;28;20207;-76
2023/05/11 00:35:45;;;;;;;1.30;0.70;;;20.10;55.70;;;;;;5035448;28;20228;-76
2023/05/11 00:38:11;;;;;;;0.47;0.47;;;20.20;55.80;;;;;;5035670;28;20214;-76
2023/05/11 00:40:39;;;;;;;0.70;0.70;;;20.20;55.80;;;;;;5035745;28;20245;-76
2023/05/11 00:43:06;;;;;;;0.95;0.70;;;20.10;55.70;;;;;;5035121;28;20224;-76
2023/05/11 00:45:33;;;;;;;2.33;0.75;;;20.20;55.90;;;;;;5035301;28;20203;-76
2023/05/11 00:48:00;;;;;;;1.65;0.70;;;20.10;55.80;;;;;;5035086;28;20219;-76
2023/05/11 00:50:27;;;;;;;1.58;0.65;;;20.20;55.90;;;;;;5035168;28;20662;-76
2023/05/11 00:52:56;;;;;;;1.15;0.80;;;20.10;55.90;;;;;;5035209;28;20220;-77
2023/05/11 00:55:24;;;;;;;0.80;0.80;;;20.10;55.80;;;;;;5035320;28;20200;-77
2023/05/11 00:57:51;;;;;;;1.27;0.68;;;20.10;55.90;;;;;;5035071;28;20547;-77
2023/05/11 01:00:17;;;;;;;1.50;0.70;;;20.10;55.90;;;;;;5035606;28;20200;-77
2023/05/11 01:02:44;;;;;;;0.60;0.60;;;20.10;55.90;;;;;;5034838;28;20281;-76
2023/05/11 01:05:11;;;;;;;0.50;0.50;;;20.10;55.90;;;;;;5034869;28;20207;-76
2023/05/11 01:07:43;;;;;;;0.50;0.50;;;20.10;56.00;;;;;;5034849;28;20196;-76
2023/05/11 01:10:15;;;;;;;1.58;0.73;;;20.10;55.90;;;;;;5034831;28;20657;-76
2023/05/11 01:12:46;;;;;;;0.65;0.65;;;20.10;56.60;;;;;;5034833;28;20220;-78
2023/05/11 01:15:16;;;;;;;0.47;0.47;;;20.10;56.10;;;;;;5034904;28;20199;-78
2023/05/11 01:17:46;;;;;;;0.70;0.70;;;20.10;56.00;;;;;;5034693;28;20279;-78
2023/05/11 01:20:17;;;;;;;0.90;0.90;;;20.10;56.00;;;;;;5035335;28;20192;-77
2023/05/11 01:22:53;;;;;;;0.70;0.70;;;20.10;56.10;;;;;;5034648;28;20270;-77
2023/05/11 01:25:34;;;;;;;1.02;0.80;;;20.10;56.10;;;;;;5034591;28;20263;-77
2023/05/11 01:28:15;;;;;;;0.73;0.73;;;20.00;56.00;;;;;;5017945;28;20251;-77
2023/05/11 01:30:45;;;;;;;0.47;0.47;;;20.00;56.00;;;;;;5034610;28;20214;-77
2023/05/11 01:33:12;;;;;;;0.75;0.50;;;20.00;56.00;;;;;;5018178;28;20189;-77
2023/05/11 01:35:41;;;;;;;0.85;0.70;;;20.00;56.60;;;;;;5034404;28;20192;-77
2023/05/11 01:38:10;;;;;;;0.73;0.73;;;20.00;56.00;;;;;;5034368;28;20271;-77
2023/05/11 01:40:38;;;;;;;1.17;0.70;;;20.00;56.00;;;;;;5035397;28;20291;-77
2023/05/11 01:43:06;;;;;;;2.05;0.70;;;20.00;56.00;;;;;;5034295;28;20285;-77
2023/05/11 01:45:34;;;;;;;1.48;0.60;;;20.00;56.00;;;;;;5034356;28;20199;-76
2023/05/11 01:48:04;;;;;;;1.40;0.70;;;20.00;56.00;;;;;;5034213;28;20231;-77
2023/05/11 01:50:31;;;;;;;1.35;0.60;;;20.00;56.00;;;;;;5034777;28;20196;-77
2023/05/11 01:52:58;;;;;;;0.70;0.70;;;20.00;56.00;;;;;;5033983;28;20653;-77
2023/05/11 01:55:25;;;;;;;1.13;0.52;;;20.00;56.00;;;;;;5034052;28;20199;-77
2023/05/11 01:57:53;;;;;;;0.90;0.55;;;20.00;56.00;;;;;;5034325;28;20562;-77
2023/05/11 02:00:20;;;;;;;1.83;0.65;;;20.00;56.00;;;;;;5033945;28;20212;-77
2023/05/11 02:02:47;;;;;;;0.60;0.60;;;20.00;56.00;;;;;;5034220;28;20220;-77
2023/05/11 02:05:18;;;;;;;0.85;0.82;;;20.00;56.00;;;;;;5033743;28;20206;-77
2023/05/11 02:07:47;;;;;;;0.52;0.52;;;19.90;55.90;;;;;;5033663;28;20576;-77
2023/05/11 02:10:17;;;;;;;1.33;0.60;;;19.90;55.90;;;;;;5034350;28;20215;-77
2023/05/11 02:12:45;;;;;;;0.60;0.60;;;19.90;55.90;;;;;;5033934;28;20231;-77
2023/05/11 02:15:13;;;;;;;0.90;0.70;;;20.00;56.10;;;;;;5033639;28;20283;-77
2023/05/11 02:17:41;;;;;;;1.77;0.65;;;19.90;55.90;;;;;;5017183;28;20601;-77
2023/05/11 02:20:09;;;;;;;0.70;0.70;;;19.90;56.00;;;;;;5033499;28;20200;-77
2023/05/11 02:22:37;;;;;;;0.73;0.70;;;19.90;56.00;;;;;;5033632;28;20242;-77
2023/05/11 02:25:04;;;;;;;0.60;0.57;;;19.90;56.10;;;;;;5033666;28;20196;-77
2023/05/11 02:27:34;;;;;;;1.38;0.57;;;19.90;56.00;;;;;;5033239;28;20210;-77
2023/05/11 02:30:02;;;;;;;0.60;0.60;;;19.90;56.00;;;;;;5033278;28;20214;-77
2023/05/11 02:32:29;;;;;;;0.70;0.70;;;19.90;56.00;;;;;;5017338;28;20223;-77
2023/05/11 02:35:00;;;;;;;0.50;0.50;;;19.90;56.00;;;;;;5033301;28;20208;-77
2023/05/11 02:37:28;;;;;;;1.15;0.90;;;19.90;56.00;;;;;;5033416;28;20188;-76
2023/05/11 02:39:58;;;;;;;0.50;0.50;;;19.90;56.00;;;;;;5033170;28;20216;-77
2023/05/11 02:42:26;;;;;;;1.40;0.68;;;19.90;56.10;;;;;;5033093;28;20290;-77
2023/05/11 02:44:56;;;;;;;1.08;0.70;;;19.90;56.10;;;;;;5033664;28;20576;-77
2023/05/11 02:47:25;;;;;;;1.65;0.80;;;19.90;56.10;;;;;;5033007;28;20200;-77
2023/05/11 02:49:53;;;;;;;0.60;0.60;;;19.90;56.10;;;;;;5032958;28;20297;-77
2023/05/11 02:52:21;;;;;;;0.60;0.60;;;19.90;56.10;;;;;;5032969;28;20299;-77
2023/05/11 02:54:49;;;;;;;0.47;0.47;;;19.90;56.10;;;;;;5032499;28;20561;-76
2023/05/11 02:57:17;;;;;;;0.50;0.50;;;19.90;56.10;;;;;;5032931;28;20200;-76
2023/05/11 02:59:45;;;;;;;0.90;0.60;;;19.90;56.10;;;;;;5032884;28;20736;-76
2023/05/11 03:02:13;;;;;;;0.80;0.52;;;19.90;56.60;;;;;;5032793;28;20585;-76
2023/05/11 03:04:41;;;;;;;0.50;0.50;;;19.90;56.00;;;;;;5033133;28;20561;-76
2023/05/11 03:07:08;;;;;;;0.65;0.65;;;19.90;56.00;;;;;;5034034;28;20191;-76
2023/05/11 03:09:35;;;;;;;1.55;0.68;;;19.90;56.00;;;;;;5032606;28;20211;-76
2023/05/11 03:12:03;;;;;;;0.80;0.80;;;19.90;56.00;;;;;;5033071;28;20248;-76
2023/05/11 03:14:33;;;;;;;0.88;0.80;;;19.90;56.10;;;;;;5032605;28;20195;-76
2023/05/11 03:17:01;;;;;;;0.95;0.50;;;19.90;56.00;;;;;;5032718;28;20195;-76
2023/05/11 03:19:28;;;;;;;1.67;0.70;;;19.90;56.00;;;;;;5032777;28;20192;-76
2023/05/11 03:21:56;;;;;;;0.70;0.70;;;20.00;55.90;;;;;;5032588;28;20698;-76
2023/05/11 03:24:24;;;;;;;1.25;0.63;;;20.00;55.90;;;;;;5032600;28;20250;-76
2023/05/11 03:26:53;;;;;;;0.70;0.70;;;20.00;55.90;;;;;;5032386;28;20202;-76
2023/05/11 03:29:22;;;;;;;0.65;0.65;;;20.10;55.90;;;;;;5033453;28;20620;-76
2023/05/11 03:31:52;;;;;;;0.60;0.60;;;20.10;55.70;;;;;;5032604;28;20228;-76
2023/05/11 03:34:21;;;;;;;0.70;0.70;;;20.10;55.50;;;;;;5033340;28;20187;-76
2023/05/11 03:36:48;;;;;;;0.63;0.63;;;20.20;55.60;;;;;;5033252;28;20214;-76
2023/05/11 03:39:15;;;;;;;0.75;0.75;;;20.20;55.50;;;;;;5032462;28;20196;-76
2023/05/11 03:41:43;;;;;;;1.30;0.63;;;20.30;55.40;;;;;;5032367;28;20219;-77
2023/05/11 03:44:11;;;;;;;1.60;0.70;;;20.20;55.40;;;;;;5032408;28;20219;-77
2023/05/11 03:46:39;;;;;;;0.70;0.70;;;20.30;55.30;;;;;;5032291;28;20273;-77
2023/05/11 03:49:09;;;;;;;0.68;0.57;;;20.30;55.30;;;;;;5032294;28;20712;-77
2023/05/11 03:51:36;;;;;;;1.20;0.60;;;20.30;55.00;;;;;;5032411;28;20636;-77
2023/05/11 03:54:04;;;;;;;0.60;0.60;;;20.30;55.00;;;;;;5016045;28;20613;-77
2023/05/11 03:56:31;;;;;;;0.73;0.50;;;20.30;54.80;;;;;;5033193;28;20195;-78
2023/05/11 03:58:58;;;;;;;0.50;0.50;;;20.30;54.80;;;;;;5033040;28;20659;-78
2023/05/11 04:01:25;;;;;;;2.40;0.60;;;20.30;54.80;;;;;;5016431;28;20239;-78
2023/05/11 04:03:53;;;;;;;0.73;0.70;;;20.30;54.80;;;;;;5035332;28;20275;-78
2023/05/11 04:06:22;;;;;;;1.10;0.50;;;20.30;54.80;;;;;;5033761;28;20192;-78
2023/05/11 04:08:58;;;;;;;0.52;0.52;;;20.30;54.80;;;;;;5037906;28;20212;-77
2023/05/11 04:11:28;;;;;;;0.60;0.60;;;20.30;54.80;;;;;;5021355;28;20242;-78
2023/05/11 04:13:56;;;;;;;0.75;0.50;;;20.30;54.80;;;;;;5036920;28;20294;-78
2023/05/11 04:16:23;;;;;;;0.63;0.63;;;20.30;54.80;;;;;;5036410;28;20195;-78
2023/05/11 04:18:50;;;;;;;0.57;0.57;;;20.30;55.00;;;;;;5021027;28;20632;-78
2023/05/11 04:21:17;;;;;;;0.57;0.50;;;20.30;55.10;;;;;;5037079;28;20314;-78
2023/05/11 04:23:46;;;;;;;0.85;0.60;;;20.20;54.90;;;;;;5020321;28;20206;-78
2023/05/11 04:28:51;;;;;;;1.70;0.60;;;20.30;55.20;;;;;;5036910;28;20307;-81
2023/05/11 04:31:18;;;;;;;0.60;0.60;;;20.20;55.10;;;;;;5037035;28;20721;-81
2023/05/11 04:33:46;;;;;;;0.50;0.50;;;20.20;55.20;;;;;;4988317;28;20202;-80
2023/05/11 04:36:13;;;;;;;0.95;0.57;;;20.20;55.20;;;;;;5003571;28;20219;-79
2023/05/11 04:38:40;;;;;;;0.68;0.57;;;20.20;55.20;;;;;;5019266;28;20219;-79
2023/05/11 04:41:09;;;;;;;1.55;0.50;;;20.20;55.10;;;;;;5019670;28;20208;-79
2023/05/11 04:43:39;;;;;;;0.45;0.45;;;20.20;55.20;;;;;;5019378;28;20188;-79
2023/05/11 04:46:09;;;;;;;0.47;0.47;;;20.20;55.20;;;;;;5020039;28;20218;-79
2023/05/11 04:48:35;;;;;;;0.50;0.50;;;20.20;55.20;;;;;;5019426;28;20200;-79
2023/05/11 04:51:05;;;;;;;2.22;0.60;;;20.20;55.20;;;;;;5019535;28;20199;-79
2023/05/11 04:53:47;;;;;;;2.42;0.80;;;20.20;55.20;;;;;;5021991;28;20207;-79
2023/05/11 04:56:16;;;;;;;0.60;0.60;;;20.20;55.20;;;;;;5021776;28;20287;-79
2023/05/11 04:58:44;;;;;;;1.80;0.60;;;20.20;55.30;;;;;;5019691;28;20197;-79
2023/05/11 05:01:11;;;;;;;0.60;0.60;;;20.20;55.90;;;;;;5020191;28;20226;-79
2023/05/11 05:03:38;;;;;;;1.00;0.57;;;20.20;55.20;;;;;;5019474;28;20290;-79
2023/05/11 05:06:05;;;;;;;0.90;0.90;;;20.20;55.30;;;;;;5019181;28;20294;-79
2023/05/11 05:08:32;;;;;;;0.70;0.70;;;20.20;55.30;;;;;;5019279;28;20204;-79
2023/05/11 05:11:00;;;;;;;0.60;0.60;;;20.20;55.20;;;;;;5018909;28;20679;-79
2023/05/11 05:13:28;;;;;;;0.60;0.60;;;20.20;55.20;;;;;;5019613;28;20204;-79
2023/05/11 05:15:55;;;;;;;0.70;0.70;;;20.20;55.30;;;;;;5019204;28;20196;-79
2023/05/11 05:18:23;;;;;;;0.52;0.50;;;20.20;55.20;;;;;;5002333;28;20273;-79
2023/05/11 05:20:50;;;;;;;0.95;0.65;;;20.20;55.20;;;;;;5019404;28;20199;-79
2023/05/11 05:23:18;;;;;;;1.13;0.70;;;20.20;55.20;;;;;;5037474;28;20197;-79
2023/05/11 05:25:45;;;;;;;1.67;0.70;;;20.20;55.20;;;;;;5021734;28;20207;-79
2023/05/11 05:28:12;;;;;;;0.70;0.70;;;20.20;55.20;;;;;;5052736;28;20192;-80
2023/05/11 05:30:41;;;;;;;0.40;0.40;;;20.20;55.20;;;;;;5025634;28;20228;-79
2023/05/11 05:33:09;;;;;;;1.48;0.77;;;20.20;55.10;;;;;;5026529;28;20222;-79
2023/05/11 05:35:36;;;;;;;0.60;0.60;;;20.20;55.10;;;;;;5043779;28;20186;-79
2023/05/11 05:38:05;;;;;;;0.85;0.80;;;20.20;55.20;;;;;;5043839;28;20184;-79
2023/05/11 05:40:36;;;;;;;0.45;0.45;;;20.20;55.20;;;;;;5043715;28;20247;-79
2023/05/11 05:43:03;;;;;;;1.83;0.68;;;20.20;55.10;;;;;;5039693;28;20216;-79
2023/05/11 05:45:31;;;;;;;0.80;0.60;;;20.20;55.20;;;;;;5024573;28;20200;-79
2023/05/11 05:48:00;;;;;;;0.70;0.70;;;20.20;55.20;;;;;;5028451;28;20223;-81
2023/05/11 05:50:34;;;;;;;0.70;0.70;;;20.20;55.20;;;;;;5028127;28;20239;-81
2023/05/11 05:53:02;;;;;;;0.75;0.75;;;20.20;55.10;;;;;;5011732;28;20211;-80
2023/05/11 05:55:31;;;;;;;0.73;0.73;;;20.20;55.10;;;;;;5025962;28;20200;-80
2023/05/11 05:58:01;;;;;;;1.13;0.88;;;20.30;55.10;;;;;;5024848;28;20192;-80
2023/05/11 06:00:28;;;;;;;1.27;0.60;;;20.30;55.10;;;;;;5026393;28;20200;-80
2023/05/11 06:03:05;;;;;;;0.63;0.63;;;20.30;55.10;;;;;;5028435;28;20277;-80
2023/05/11 06:05:32;;;;;;;1.15;0.70;;;20.30;55.00;;;;;;5025957;28;20200;-80
2023/05/11 06:08:00;;;;;;;0.77;0.77;;;20.20;54.90;;;;;;5018641;28;20196;-81
2023/05/11 06:10:27;;;;;;;0.60;0.60;;;20.30;55.10;;;;;;5035002;28;20220;-81
2023/05/11 06:12:55;;;;;;;0.88;0.88;;;20.30;55.10;;;;;;5019518;28;20222;-81
2023/05/11 06:15:22;;;;;;;0.60;0.60;;;20.30;54.90;;;;;;5026113;28;20207;-81
2023/05/11 06:17:55;;;;;;;1.25;0.70;;;20.40;54.90;;;;;;5013972;28;20246;-81
2023/05/11 06:20:24;;;;;;;1.25;0.60;;;20.40;54.90;;;;;;5018975;28;20214;-81
2023/05/11 06:22:51;;;;;;;0.55;0.50;;;20.40;54.90;;;;;;5019266;28;20215;-81
2023/05/11 06:25:19;;;;;;;0.60;0.60;;;20.50;55.40;;;;;;5019107;28;20192;-81
2023/05/11 06:27:47;;;;;;;0.70;0.70;;;20.50;54.80;;;;;;5019010;28;20196;-81
2023/05/11 06:30:14;;;;;;;0.73;0.60;;;20.50;54.60;;;;;;5017960;28;20294;-81
2023/05/11 06:32:41;;;;;;;1.45;0.70;;;20.50;54.60;;;;;;5018181;28;20219;-81
2023/05/11 06:35:09;;;;;;;1.40;0.70;;;20.60;54.50;;;;;;5018332;28;20278;-81
2023/05/11 06:37:37;;;;;;;0.73;0.52;;;20.60;54.30;;;;;;5019580;28;20203;-81
2023/05/11 06:40:06;;;;;;;0.70;0.70;;;20.60;54.00;;;;;;5004043;28;20192;-81
2023/05/11 06:42:34;;;;;;;0.50;0.50;;;20.50;53.90;;;;;;5003337;28;20307;-81
2023/05/11 06:45:09;;;;;;;0.95;0.85;;;20.60;53.90;;;;;;5004494;28;20192;-81
2023/05/11 06:47:36;;;;;;;1.42;1.00;;;20.60;53.90;;;;;;5019970;28;20192;-81
2023/05/11 06:50:03;;;;;;;0.70;0.70;;;20.60;54.40;;;;;;5019709;28;20240;-81
2023/05/11 06:52:30;;;;;;;0.70;0.47;;;20.70;53.90;;;;;;5018841;28;20243;-81
2023/05/11 06:55:03;;;;;;;0.60;0.60;;;20.60;54.00;;;;;;5018076;28;20219;-81
2023/05/11 06:57:30;;;;;;;0.85;0.60;;;20.60;54.10;;;;;;5018696;28;20200;-81
2023/05/11 06:59:58;;;;;;;0.75;0.75;;;20.60;54.10;;;;;;5019646;28;20207;-81
2023/05/11 07:02:24;;;;;;;1.27;0.70;;;20.60;54.00;;;;;;5019854;28;20211;-81
2023/05/11 07:04:52;;;;;;;0.63;0.63;;;20.60;54.00;;;;;;5019881;28;20200;-81
2023/05/11 07:07:19;;;;;;;0.60;0.60;;;20.60;54.00;;;;;;5021404;28;20196;-81
2023/05/11 07:09:46;;;;;;;1.35;0.82;;;20.70;54.30;;;;;;5020850;28;20358;-81
2023/05/11 07:12:14;;;;;;;0.98;0.57;;;20.60;53.90;;;;;;5020384;28;20227;-81
2023/05/11 07:14:41;;;;;;;0.55;0.50;;;20.70;54.10;;;;;;5020410;28;20222;-81
2023/05/11 07:17:09;;;;;;;0.80;0.80;;;20.60;54.00;;;;;;5021331;28;20572;-81
2023/05/11 07:19:36;;;;;;;0.65;0.65;;;20.60;53.90;;;;;;5020918;28;20200;-81
2023/05/11 07:22:04;;;;;;;0.70;0.70;;;20.70;54.00;;;;;;5020301;28;20238;-81
2023/05/11 07:24:31;;;;;;;1.25;0.70;;;20.70;54.10;;;;;;5020079;28;20204;-81
2023/05/11 07:26:59;;;;;;;1.65;0.65;;;20.70;54.00;;;;;;5020357;28;20275;-81
2023/05/11 07:29:28;;;;;;;0.43;0.43;;;20.70;54.00;;;;;;5019248;28;20192;-81
2023/05/11 07:31:55;;;;;;;0.50;0.50;;;20.70;54.00;;;;;;5018591;28;20220;-81
2023/05/11 07:34:23;;;;;;;0.90;0.80;;;20.70;53.80;;;;;;5036909;28;20259;-81
2023/05/11 07:36:50;;;;;;;0.68;0.68;;;20.70;53.70;;;;;;5018401;28;20259;-81
2023/05/11 07:39:18;;;;;;;1.35;0.60;;;20.80;53.90;;;;;;5018436;28;20200;-81
2023/05/11 07:41:45;;;;;;;0.80;0.80;;;20.80;53.80;;;;;;5021127;28;20215;-81
2023/05/11 07:44:12;;;;;;;1.27;0.70;;;20.70;53.70;;;;;;5022483;28;20226;-81
2023/05/11 07:46:40;;;;;;;0.60;0.60;;;20.80;53.80;;;;;;5022182;28;20658;-81
2023/05/11 07:49:09;;;;;;;0.60;0.60;;;20.80;53.70;;;;;;5005567;28;20204;-81
2023/05/11 07:51:37;;;;;;;0.75;0.63;;;20.80;53.70;;;;;;5021453;28;20232;-81
2023/05/11 07:54:04;;;;;;;1.98;0.90;;;20.80;53.70;;;;;;5022226;28;20205;-81
2023/05/11 07:56:31;;;;;;;0.70;0.68;;;20.80;53.60;;;;;;5021061;28;20249;-81
2023/05/11 07:58:58;;;;;;;0.77;0.77;;;20.80;53.40;;;;;;5021749;28;20203;-81
2023/05/11 08:01:25;;;;;;;0.60;0.50;;;20.80;53.30;;;;;;5022208;28;20681;-80
2023/05/11 08:03:54;;;;;;;0.52;0.52;;;20.90;53.40;;;;;;5021526;28;20250;-81
2023/05/11 08:06:21;;;;;;;0.60;0.60;;;20.90;53.40;;;;;;5021207;28;20677;-81
2023/05/11 08:08:48;;;;;;;0.70;0.60;;;20.90;53.50;;;;;;5021411;28;20184;-80
2023/05/11 08:11:16;;;;;;;0.73;0.73;;;20.90;53.40;;;;;;5020993;28;20220;-81
2023/05/11 08:13:43;;;;;;;0.65;0.65;;;20.90;53.30;;;;;;5022920;28;20659;-81
2023/05/11 08:16:10;;;;;;;0.95;0.80;;;20.90;53.80;;;;;;5023215;28;20192;-81
2023/05/11 08:18:37;;;;;;;0.63;0.63;;;20.90;53.30;;;;;;5021246;28;20226;-81
2023/05/11 08:21:07;;;;;;;0.60;0.60;;;20.90;53.40;;;;;;5004172;28;20199;-81
2023/05/11 08:23:34;;;;;;;0.60;0.60;;;20.90;53.30;;;;;;5021379;28;20200;-81
2023/05/11 08:26:01;;;;;;;0.73;0.65;;;20.90;53.40;;;;;;5020910;28;20193;-81
2023/05/11 08:28:28;;;;;;;0.70;0.70;;;20.90;53.30;;;;;;5020787;28;20306;-81
2023/05/11 08:30:56;;;;;;;1.67;0.80;;;20.90;53.40;;;;;;5020340;28;20216;-81
2023/05/11 08:33:23;;;;;;;1.15;1.00;;;20.90;53.20;;;;;;5022052;28;20231;-81
2023/05/11 08:35:50;;;;;;;0.65;0.60;;;20.90;53.20;;;;;;5022712;28;20192;-81
2023/05/11 08:38:19;;;;;;;0.70;0.70;;;20.90;53.20;;;;;;5005267;28;20211;-80
2023/05/11 08:40:47;;;;;;;0.68;0.68;;;20.90;53.30;;;;;;5021014;28;20292;-81
2023/05/11 08:43:15;;;;;;;0.88;0.88;;;21.00;53.30;;;;;;5021043;28;20540;-80
2023/05/11 08:45:43;;;;;;;0.70;0.70;;;21.00;53.30;;;;;;5020864;28;20669;-81
2023/05/11 08:48:10;;;;;;;0.60;0.60;;;21.00;53.20;;;;;;5005275;28;20203;-81
2023/05/11 08:50:37;;;;;;;1.10;1.00;;;21.00;53.80;;;;;;5020557;28;20219;-81
2023/05/11 08:53:04;;;;;;;0.88;0.88;;;21.00;53.20;;;;;;5019908;28;20220;-81
2023/05/11 08:55:32;;;;;;;1.00;1.00;;;21.00;53.20;;;;;;5020507;28;20200;-81
2023/05/11 08:57:59;;;;;;;0.80;0.80;;;21.00;53.20;;;;;;5020297;28;20200;-81
2023/05/11 09:00:28;;;;;;;1.15;0.90;;;21.10;53.20;;;;;;5021182;28;20227;-80
2023/05/11 09:02:55;;;;;;;1.83;1.17;;;21.10;53.10;;;;;;5021115;28;20220;-80
2023/05/11 09:05:22;;;;;;;0.88;0.88;;;21.10;52.80;;;;;;5020467;28;20200;-80
2023/05/11 09:07:51;;;;;;;1.10;0.90;;;21.20;53.00;;;;;;5021353;28;20210;-80
2023/05/11 09:10:18;;;;;;;1.05;1.00;;;21.20;53.00;;;;;;5020611;28;20238;-80
2023/05/11 09:12:46;;;;;;;1.27;1.00;;;21.20;53.00;;;;;;5020651;28;20224;-80
2023/05/11 09:15:13;;;;;;;0.90;0.90;;;21.20;53.00;;;;;;5037293;28;20251;-81
2023/05/11 09:17:41;;;;;;;1.45;1.10;;;21.20;52.90;;;;;;5038505;28;20200;-80
2023/05/11 09:20:09;;;;;;;0.90;0.90;;;21.20;52.80;;;;;;5005844;28;20200;-80
2023/05/11 09:22:42;;;;;;;0.82;0.82;;;21.20;52.90;;;;;;5022083;28;20224;-81
2023/05/11 09:25:10;;;;;;;1.00;1.00;;;21.20;52.80;;;;;;5020965;28;20189;-81
2023/05/11 09:27:41;;;;;;;1.00;1.00;;;21.20;52.80;;;;;;5021019;28;20240;-81
2023/05/11 09:30:13;;;;;;;1.63;0.98;;;21.30;52.80;;;;;;5020941;28;20211;-81
2023/05/11 09:32:47;;;;;;;0.80;0.80;;;21.30;52.70;;;;;;5019552;28;20219;-80
2023/05/11 09:35:24;;;;;;;1.08;0.95;;;21.30;52.80;;;;;;5019634;28;20192;-80
2023/05/11 09:37:58;;;;;;;0.80;0.80;;;21.30;52.80;;;;;;5019617;28;20211;-80
2023/05/11 09:40:26;;;;;;;0.82;0.60;;;21.30;53.00;;;;;;5037393;28;20184;-80
2023/05/11 09:42:53;;;;;;;0.88;0.88;;;21.30;52.70;;;;;;5019760;28;20211;-81
2023/05/11 09:45:39;;;;;;;0.80;0.80;;;21.30;52.70;;;;;;5019507;28;20249;-80
2023/05/11 09:48:06;;;;;;;1.15;0.98;;;21.30;52.70;;;;;;5018548;28;20206;-81
2023/05/11 09:50:34;;;;;;;0.85;0.80;;;21.30;52.60;;;;;;5019015;28;20716;-80
2023/05/11 09:53:01;;;;;;;0.95;0.85;;;21.30;52.70;;;;;;5019257;28;20216;-81
2023/05/11 09:55:29;;;;;;;0.98;0.98;;;21.30;52.60;;;;;;5019256;28;20204;-81
2023/05/11 09:57:57;;;;;;;1.05;0.90;;;21.30;52.50;;;;;;5002889;28;20196;-81
2023/05/11 10:00:25;;;;;;;0.90;0.90;;;21.30;52.50;;;;;;5003685;28;20220;-80
2023/05/11 10:03:04;;;;;;;1.42;0.90;;;21.30;52.50;;;;;;5019176;28;20593;-80
2023/05/11 10:05:32;;;;;;;1.90;1.13;;;21.40;52.60;;;;;;5017627;28;20294;-81
2023/05/11 10:08:00;;;;;;;2.13;1.10;;;21.40;52.60;;;;;;5018821;28;20290;-80
2023/05/11 10:10:28;;;;;;;1.00;1.00;;;21.30;52.50;;;;;;5021275;28;20251;-80
2023/05/11 10:12:55;;;;;;;2.00;1.30;;;21.40;52.50;;;;;;5020292;28;20215;-81
2023/05/11 10:15:25;;;;;;;1.25;0.90;;;21.30;52.40;;;;;;5020541;28;20634;-81
2023/05/11 10:17:53;;;;;;;1.10;1.00;;;21.40;52.40;;;;;;5019936;28;20254;-81
2023/05/11 10:20:21;;;;;;;1.13;1.05;;;21.40;52.40;;;;;;5018082;28;20230;-80
2023/05/11 10:22:48;;;;;;;1.23;1.15;;;21.30;52.30;;;;;;5018100;28;20216;-81
2023/05/11 10:25:15;;;;;;;1.27;1.17;;;21.30;52.30;;;;;;5018344;28;20192;-81
2023/05/11 10:27:42;;;;;;;1.25;1.20;;;21.40;52.40;;;;;;5098541;22;20223;-76
2023/05/11 10:30:10;;;;;;;1.23;1.00;;;21.30;52.50;;;;;;5074379;28;20252;-76
2023/05/11 10:32:39;;;;;;;1.00;1.00;;;21.30;52.40;;;;;;5073171;28;20223;-76
2023/05/11 10:35:06;;;;;;;1.55;1.30;;;21.30;53.00;;;;;;5073491;28;20607;-76
2023/05/11 10:37:35;;;;;;;1.05;0.95;;;21.40;52.50;;;;;;5073530;28;20194;-76
2023/05/11 10:40:03;;;;;;;1.00;1.00;;;21.30;52.50;;;;;;5073640;28;20203;-76
2023/05/11 10:42:58;;;;;;;1.13;1.10;;;21.30;52.60;;;;;;5073582;28;20217;-76
2023/05/11 10:45:26;;;;;;;1.35;1.25;;;21.30;52.60;;;;;;5057885;28;20630;-76
2023/05/11 10:48:09;;;;;;;1.40;1.30;;;21.30;52.60;;;;;;5077007;28;20194;-76
2023/05/11 10:51:07;;;;;;;1.15;1.13;;;21.30;52.50;;;;;;5087463;28;20190;-76
2023/05/11 10:53:41;;;;;;;1.38;1.27;;;21.30;52.60;;;;;;5073818;28;20627;-76
2023/05/11 10:56:23;;;;;;;1.00;1.00;;;21.30;52.40;;;;;;5073883;28;20199;-76
2023/05/11 10:59:06;;;;;;;1.00;1.00;;;21.30;52.40;;;;;;5056235;28;20252;-76
2023/05/11 11:01:38;;;;;;;1.10;1.10;;;21.30;52.50;;;;;;5073057;28;20268;-76
2023/05/11 11:04:34;;;;;;;1.02;1.02;;;21.30;52.70;;;;;;5074771;28;20186;-76
2023/05/11 11:07:05;;;;;;;1.02;0.93;;;21.30;52.70;;;;;;5073420;28;20220;-76
2023/05/11 11:09:52;;;;;;;1.33;1.20;;;21.30;52.70;;;;;;5072947;28;20190;-76
2023/05/11 11:12:20;;;;;;;1.35;1.10;;;21.30;52.70;;;;;;5072852;28;20222;-76
2023/05/11 11:14:54;;;;;;;0.90;0.90;;;21.30;52.70;;;;;;5072885;28;20190;-76
2023/05/11 11:17:26;;;;;;;1.10;1.00;;;21.30;52.70;;;;;;5072666;28;20604;-76
2023/05/11 11:19:53;;;;;;;0.95;0.95;;;21.30;52.60;;;;;;5072630;28;20199;-76
2023/05/11 11:22:43;;;;;;;0.95;0.90;;;21.30;52.50;;;;;;5072904;28;20334;-76
2023/05/11 11:25:12;;;;;;;0.90;0.90;;;21.40;52.80;;;;;;5072920;28;20787;-76
2023/05/11 11:27:57;;;;;;;1.20;1.10;;;21.40;52.50;;;;;;5072716;28;20279;-76
2023/05/11 11:30:25;;;;;;;1.00;1.00;;;21.40;52.10;;;;;;5072239;28;20195;-77
2023/05/11 11:32:54;;;;;;;0.80;0.80;;;21.40;52.10;;;;;;5072987;28;20260;-77
2023/05/11 11:35:49;;;;;;;0.90;0.90;;;21.50;52.10;;;;;;5072382;28;20267;-77
2023/05/11 11:38:17;;;;;;;1.52;1.00;;;21.50;52.20;;;;;;5072358;28;20209;-77
2023/05/11 11:40:48;;;;;;;1.38;1.00;;;21.50;52.30;;;;;;5072475;28;20226;-77
2023/05/11 11:43:18;;;;;;;1.08;0.98;;;21.50;52.10;;;;;;5056150;28;20641;-77
2023/05/11 11:45:55;;;;;;;1.02;0.85;;;21.50;52.10;;;;;;5072445;28;20198;-77
2023/05/11 11:48:23;;;;;;;1.20;1.10;;;21.50;52.20;;;;;;5072267;28;20190;-77
2023/05/11 11:51:01;;;;;;;0.70;0.70;;;21.60;52.30;;;;;;5072121;28;20242;-77
2023/05/11 11:54:08;;;;;;;0.80;0.80;;;21.60;52.00;;;;;;5072288;28;20194;-77
2023/05/11 11:56:46;;;;;;;1.10;1.00;;;21.60;51.90;;;;;;5072367;28;20247;-77
2023/05/11 11:59:14;;;;;;;1.02;1.02;;;21.60;51.80;;;;;;5072726;28;20191;-77
2023/05/11 12:01:42;;;;;;;1.73;1.20;;;21.70;51.60;;;;;;5072024;28;20242;-77
2023/05/11 12:04:49;;;;;;;1.65;1.00;;;21.70;51.60;;;;;;5072246;28;20203;-77
2023/05/11 12:07:16;;;;;;;1.15;1.05;;;21.70;51.60;;;;;;5072103;28;20226;-77
2023/05/11 12:09:45;;;;;;;0.88;0.88;;;21.70;51.50;;;;;;5055984;28;20234;-78
2023/05/11 12:12:13;;;;;;;2.08;0.85;;;21.80;51.60;;;;;;5071857;28;20221;-77
2023/05/11 12:14:47;;;;;;;1.33;1.05;;;21.80;51.60;;;;;;5071923;28;20234;-77
2023/05/11 12:17:15;;;;;;;1.00;1.00;;;21.80;51.60;;;;;;5071997;28;20215;-77
2023/05/11 12:19:43;;;;;;;1.00;0.90;;;21.80;51.60;;;;;;5071915;28;20661;-77
2023/05/11 12:22:13;;;;;;;0.93;0.93;;;21.80;51.60;;;;;;5072279;28;20223;-77
2023/05/11 12:24:41;;;;;;;0.60;0.60;;;21.80;51.50;;;;;;5072781;28;20314;-77
2023/05/11 12:27:10;;;;;;;0.93;0.90;;;21.80;51.20;;;;;;5072005;28;20212;-77
2023/05/11 12:29:40;;;;;;;1.00;0.85;;;21.80;51.00;;;;;;5080753;28;20575;-77
2023/05/11 12:32:11;;;;;;;0.90;0.90;;;21.80;51.00;;;;;;5076105;28;20211;-77
2023/05/11 12:34:38;;;;;;;1.15;0.80;;;21.80;50.80;;;;;;5059152;28;20186;-77
2023/05/11 12:37:05;;;;;;;0.60;0.60;;;21.90;50.70;;;;;;5075336;28;20195;-77
2023/05/11 12:39:34;;;;;;;1.65;0.90;;;21.90;50.80;;;;;;5075473;28;20186;-77
2023/05/11 12:42:02;;;;;;;0.80;0.80;;;21.90;51.00;;;;;;5076574;28;20704;-78
2023/05/11 12:44:28;;;;;;;0.90;0.90;;;21.90;51.00;;;;;;5076684;28;20190;-77
2023/05/11 12:46:57;;;;;;;1.02;0.85;;;21.90;51.20;;;;;;5075822;28;20281;-77
2023/05/11 12:49:26;;;;;;;0.90;0.80;;;21.90;50.80;;;;;;5075528;28;20191;-77
2023/05/11 12:52:01;;;;;;;0.65;0.65;;;21.90;50.80;;;;;;5075116;28;20233;-77
2023/05/11 12:54:32;;;;;;;0.75;0.73;;;22.00;50.90;;;;;;5075323;28;20190;-77
2023/05/11 12:56:59;;;;;;;0.70;0.70;;;22.00;50.80;;;;;;5075891;28;20191;-77
2023/05/11 12:59:31;;;;;;;1.00;0.90;;;22.00;50.70;;;;;;5075292;28;20292;-77
2023/05/11 13:02:10;;;;;;;0.82;0.82;;;21.90;50.70;;;;;;5076364;28;20217;-78